createdAt,value
2023-01-18T00:00:32.408Z,98398.81
2023-01-18T00:05:54.805Z,98400.47
2023-01-18T00:11:16.882Z,98398.00
2023-01-18T00:16:38.776Z,98387.09
2023-01-18T00:22:00.762Z,98395.00
2023-01-18T00:27:22.597Z,98387.56
2023-01-18T00:32:45.367Z,98385.22
2023-01-18T00:38:07.287Z,98378.28
2023-01-18T00:43:29.202Z,98376.28
2023-01-18T00:48:52.266Z,98376.16
2023-01-18T00:54:14.166Z,98364.28
2023-01-18T00:59:36.043Z,98358.44
2023-01-18T01:04:57.859Z,98346.47
2023-01-18T01:10:19.764Z,98329.75
2023-01-18T01:15:41.660Z,98331.34
2023-01-18T01:21:04.553Z,98327.25
2023-01-18T01:26:26.391Z,98323.94
2023-01-18T01:31:48.256Z,98313.41
2023-01-18T01:37:10.083Z,98312.63
2023-01-18T01:42:31.940Z,98298.19
2023-01-18T01:47:55.288Z,98314.38
2023-01-18T01:53:17.149Z,98321.00
2023-01-18T01:58:40.039Z,98318.34
2023-01-18T02:04:02.965Z,98316.09
2023-01-18T02:09:24.994Z,98329.63
2023-01-18T02:14:47.186Z,98327.06
2023-01-18T02:20:42.396Z,98329.97
2023-01-18T02:26:17.812Z,98335.31
2023-01-18T02:31:56.857Z,98329.31
2023-01-18T02:37:33.698Z,98327.00
2023-01-18T02:43:00.865Z,98319.25
2023-01-18T02:48:24.727Z,98318.72
2023-01-18T02:53:48.732Z,98326.72
2023-01-18T02:59:33.408Z,98311.22
2023-01-18T03:04:55.824Z,98297.31
2023-01-18T03:10:17.878Z,98282.34
2023-01-18T03:15:42.629Z,98286.16
2023-01-18T03:21:06.538Z,98279.00
2023-01-18T03:26:28.676Z,98264.38
2023-01-18T03:32:04.907Z,98262.75
2023-01-18T03:37:31.520Z,98228.97
2023-01-18T03:43:08.438Z,98230.66
2023-01-18T03:48:32.541Z,98227.47
2023-01-18T03:54:29.047Z,98192.09
2023-01-18T03:59:51.795Z,98198.66
2023-01-18T04:05:14.236Z,98178.13
2023-01-18T04:10:36.079Z,98152.09
2023-01-18T04:15:57.923Z,98136.59
2023-01-18T04:21:19.782Z,98140.16
2023-01-18T04:26:41.669Z,98149.66
2023-01-18T04:32:04.498Z,98148.81
2023-01-18T04:37:26.556Z,98142.81
2023-01-18T04:42:52.892Z,98137.81
2023-01-18T04:48:14.623Z,98158.41
2023-01-18T04:53:36.479Z,98153.38
2023-01-18T04:58:58.344Z,98159.00
2023-01-18T05:04:20.826Z,98161.88
2023-01-18T05:09:42.705Z,98162.53
2023-01-18T05:15:05.204Z,98164.19
2023-01-18T05:20:27.129Z,98152.16
2023-01-18T05:25:53.908Z,98158.41
2023-01-18T05:31:17.547Z,98158.94
2023-01-18T05:36:39.450Z,98147.44
2023-01-18T05:42:01.701Z,98120.88
2023-01-18T05:47:23.557Z,98116.44
2023-01-18T05:52:45.379Z,98113.06
2023-01-18T05:58:07.729Z,98083.09
2023-01-18T06:03:29.666Z,98073.69
2023-01-18T06:08:51.761Z,98052.44
2023-01-18T06:14:13.687Z,98042.75
2023-01-18T06:19:36.162Z,98042.13
2023-01-18T06:24:58.422Z,98033.56
2023-01-18T06:30:20.855Z,98042.06
2023-01-18T06:35:43.203Z,98022.69
2023-01-18T06:41:05.210Z,97997.38
2023-01-18T06:46:27.053Z,97979.91
2023-01-18T06:51:49.085Z,98001.94
2023-01-18T06:57:11.531Z,98013.31
2023-01-18T07:02:33.961Z,97980.06
2023-01-18T07:07:55.796Z,97970.88
2023-01-18T07:13:17.663Z,97984.78
2023-01-18T07:18:39.641Z,98018.91
2023-01-18T07:24:01.541Z,98024.25
2023-01-18T07:29:23.440Z,98011.69
2023-01-18T07:34:45.396Z,98002.50
2023-01-18T07:40:08.086Z,97997.88
2023-01-18T07:45:30.303Z,97999.19
2023-01-18T07:50:57.266Z,97997.19
2023-01-18T07:56:19.186Z,98006.75
2023-01-18T08:01:41.141Z,98003.53
2023-01-18T08:07:03.084Z,97998.50
2023-01-18T08:12:24.986Z,97982.31
2023-01-18T08:17:46.844Z,97973.66
2023-01-18T08:23:08.991Z,97979.28
2023-01-18T08:28:31.368Z,97975.06
2023-01-18T08:33:53.502Z,97958.88
2023-01-18T08:39:15.381Z,97953.75
2023-01-18T08:44:37.214Z,97929.38
2023-01-18T08:49:59.186Z,97943.81
2023-01-18T08:55:22.507Z,97956.00
2023-01-18T09:00:44.402Z,97964.53
2023-01-18T09:06:07.136Z,97953.81
2023-01-18T09:11:29.195Z,97959.97
2023-01-18T09:16:51.087Z,97958.09
2023-01-18T09:22:13.063Z,97955.53
2023-01-18T09:27:34.955Z,97937.69
2023-01-18T09:32:58.517Z,97924.94
2023-01-18T09:38:20.737Z,97889.59
2023-01-18T09:43:50.109Z,97902.41
2023-01-18T09:49:21.763Z,97892.94
2023-01-18T09:55:02.367Z,97879.19
2023-01-18T10:00:26.040Z,97898.72
2023-01-18T10:06:02.624Z,97900.03
2023-01-18T10:11:30.204Z,97894.16
2023-01-18T10:16:59.097Z,97887.41
2023-01-18T10:22:37.759Z,97890.13
2023-01-18T10:28:08.555Z,97897.34
2023-01-18T10:33:35.781Z,97898.16
2023-01-18T10:39:00.190Z,97878.94
2023-01-18T10:44:22.087Z,97852.19
2023-01-18T10:49:46.028Z,97878.44
2023-01-18T10:55:15.390Z,97865.75
2023-01-18T11:00:37.397Z,97844.75
2023-01-18T11:06:06.967Z,97832.22
2023-01-18T11:11:32.754Z,97826.91
2023-01-18T11:17:12.735Z,97824.06
2023-01-18T11:22:35.494Z,97821.13
2023-01-18T11:28:02.473Z,97810.84
2023-01-18T11:33:27.348Z,97819.16
2023-01-18T11:38:49.228Z,97822.03
2023-01-18T11:44:25.083Z,97830.88
2023-01-18T11:49:55.001Z,97843.59
2023-01-18T11:55:40.793Z,97842.53
2023-01-18T12:01:24.779Z,97835.38
2023-01-18T12:06:55.165Z,97815.00
2023-01-18T12:12:45.416Z,97815.00
2023-01-18T12:18:14.033Z,97819.91
2023-01-18T12:23:54.584Z,97827.56
2023-01-18T12:29:46.808Z,97834.38
2023-01-18T12:35:30.480Z,97835.50
2023-01-18T12:41:01.879Z,97826.22
2023-01-18T12:46:33.293Z,97828.81
2023-01-18T12:52:17.650Z,97840.41
2023-01-18T12:57:40.671Z,97870.56
2023-01-18T13:03:09.710Z,97860.63
2023-01-18T13:08:44.579Z,97872.28
2023-01-18T13:14:07.247Z,97867.75
2023-01-18T13:19:44.440Z,97879.91
2023-01-18T13:25:24.158Z,97887.38
2023-01-18T13:30:59.969Z,97889.56
2023-01-18T13:36:23.128Z,97900.00
2023-01-18T13:42:08.391Z,97899.06
2023-01-18T13:47:36.272Z,97909.00
2023-01-18T13:53:13.228Z,97912.44
2023-01-18T13:58:36.153Z,97908.78
2023-01-18T14:04:07.142Z,97922.94
2023-01-18T14:09:46.094Z,97930.06
2023-01-18T14:15:24.394Z,97939.66
2023-01-18T14:21:00.749Z,97950.03
2023-01-18T14:26:27.168Z,97950.84
2023-01-18T14:31:55.647Z,97945.75
2023-01-18T14:37:27.764Z,97956.25
2023-01-18T14:42:49.565Z,97962.59
2023-01-18T14:48:16.587Z,97983.56
2023-01-18T14:53:47.317Z,97984.25
2023-01-18T14:59:24.909Z,98002.97
2023-01-18T15:04:46.772Z,98006.59
2023-01-18T15:10:10.529Z,98021.69
2023-01-18T15:15:40.834Z,98032.84
2023-01-18T15:21:05.218Z,98050.66
2023-01-18T15:26:35.025Z,98064.56
2023-01-18T15:31:57.938Z,98082.28
2023-01-18T15:37:33.886Z,98083.13
2023-01-18T15:42:58.403Z,98090.41
2023-01-18T15:48:23.012Z,98109.19
2023-01-18T15:53:48.598Z,98124.06
2023-01-18T15:59:10.811Z,98140.81
2023-01-18T16:04:33.538Z,98150.56
2023-01-18T16:10:17.102Z,98172.69
2023-01-18T16:15:39.416Z,98194.06
2023-01-18T16:21:09.276Z,98213.94
2023-01-18T16:26:31.254Z,98217.00
2023-01-18T16:32:21.864Z,98247.25
2023-01-18T16:37:44.085Z,98262.84
2023-01-18T16:43:18.518Z,98276.38
2023-01-18T16:48:40.423Z,98283.31
2023-01-18T16:54:02.256Z,98286.03
2023-01-18T16:59:24.096Z,98294.50
2023-01-18T17:04:45.937Z,98296.41
2023-01-18T17:10:19.045Z,98314.13
2023-01-18T17:15:41.072Z,98317.41
2023-01-18T17:21:02.966Z,98336.00
2023-01-18T17:26:24.851Z,98351.97
2023-01-18T17:31:55.015Z,98374.69
2023-01-18T17:37:16.915Z,98371.16
2023-01-18T17:42:38.791Z,98408.78
2023-01-18T17:48:01.367Z,98408.00
2023-01-18T17:53:23.242Z,98412.66
2023-01-18T17:58:46.917Z,98427.78
2023-01-18T18:04:08.787Z,98441.97
2023-01-18T18:09:31.128Z,98449.19
2023-01-18T18:14:52.983Z,98464.16
2023-01-18T18:20:15.275Z,98471.91
2023-01-18T18:25:37.707Z,98488.59
2023-01-18T18:31:00.546Z,98500.53
2023-01-18T18:36:22.507Z,98504.97
2023-01-18T18:41:44.910Z,98533.47
2023-01-18T18:47:07.587Z,98538.72
2023-01-18T18:52:29.508Z,98568.34
2023-01-18T18:57:51.518Z,98569.28
2023-01-18T19:03:13.726Z,98584.41
2023-01-18T19:08:35.699Z,98617.00
2023-01-18T19:13:57.576Z,98634.72
2023-01-18T19:19:20.342Z,98647.41
2023-01-18T19:24:42.252Z,98671.22
2023-01-18T19:30:04.571Z,98683.72
2023-01-18T19:35:27.095Z,98698.19
2023-01-18T19:40:49.036Z,98711.63
2023-01-18T19:46:12.624Z,98702.72
2023-01-18T19:51:34.834Z,98718.69
2023-01-18T19:56:56.753Z,98726.06
2023-01-18T20:02:19.062Z,98741.19
2023-01-18T20:07:41.100Z,98746.13
2023-01-18T20:13:03.312Z,98741.41
2023-01-18T20:18:26.704Z,98763.28
2023-01-18T20:23:48.588Z,98792.78
2023-01-18T20:29:10.644Z,98811.38
2023-01-18T20:34:34.084Z,98820.63
2023-01-18T20:39:56.229Z,98816.44
2023-01-18T20:45:18.092Z,98847.59
2023-01-18T20:50:40.891Z,98861.22
2023-01-18T20:56:05.215Z,98865.50
2023-01-18T21:01:27.913Z,98877.25
2023-01-18T21:06:49.948Z,98871.66
2023-01-18T21:12:11.916Z,98902.69
2023-01-18T21:17:33.806Z,98935.56
2023-01-18T21:22:59.954Z,98943.38
2023-01-18T21:28:22.827Z,98952.53
2023-01-18T21:33:44.712Z,98926.31
2023-01-18T21:39:06.644Z,98922.81
2023-01-18T21:44:28.956Z,98939.53
2023-01-18T21:50:16.593Z,98968.41
2023-01-18T21:55:33.270Z,98966.16
2023-01-18T22:00:55.191Z,99000.69
2023-01-18T22:06:17.138Z,99033.81
2023-01-18T22:11:39.128Z,99052.59
2023-01-18T22:17:01.020Z,99036.31
2023-01-18T22:22:23.913Z,99054.16
2023-01-18T22:27:46.136Z,99065.25
2023-01-18T22:33:08.369Z,99067.53
2023-01-18T22:38:31.448Z,99064.09
2023-01-18T22:43:54.603Z,99082.72
2023-01-18T22:49:16.593Z,99092.91
2023-01-18T22:54:38.476Z,99093.81
2023-01-18T23:00:00.359Z,99098.72
2023-01-18T23:05:22.257Z,99072.78
2023-01-18T23:10:44.200Z,99092.00
2023-01-18T23:16:08.670Z,99107.94
2023-01-18T23:21:30.552Z,99119.84
2023-01-18T23:26:52.474Z,99127.63
2023-01-18T23:32:14.401Z,99134.44
2023-01-18T23:37:36.293Z,99150.66
2023-01-18T23:42:58.137Z,99167.66
2023-01-18T23:48:20.311Z,99183.72
2023-01-18T23:53:42.264Z,99205.13
2023-01-18T23:59:04.110Z,99227.97
